Alden, NY

5:31 PM EDT on September 04, 2015 (GMT -0400)
Millgrove | | Change Station
CLOSE
Current Station
Personal Weather Station
Location: Alden, NY
Elevation: 774 ft
Nearby Weather Stations

Elev 774 ft 42.95 °N, 78.55 °W | Updated 38 seconds ago

Clear
Clear
80.3 °F
Feels Like 83 °F
N
2.0
Wind Variable Wind from ENE
Gusts 4.0 mph

Today
High -- | Low -- °F
--% Chance of Precip.
Yesterday
High -- | Low -- °F
Precip. -- in
6:41 AM 7:44 PM
Waning Gibbous, 56% visible
Pressure 30.06 in
Visibility 10.0 miles
Clouds Few 3500 ft
Few 10000 ft
Few 28000 ft
Heat Index 83 °F
Dew Point 67 °F
Humidity 64%
Rainfall 0.00 in
Snow Depth Not available.
UV 3 out of 12
Pollen 10.40 out of 12
Air Quality Not available.
Flu Activity Not available.
METAR KBUF 042054Z 05013KT 10SM FEW035 FEW100 FEW280 29/19 A3007 RMK AO2 SLP177 CB TOP DSNT SW T02890189 55005
Pressure 30.06 in
Visibility 10.0 miles
Clouds Few 3500 ft
Few 10000 ft
Few 28000 ft
Heat Index 83 °F
Dew Point 67 °F
Humidity 64%
Rainfall 0.00 in
Snow Depth Not available.
UV 3 out of 12
Pollen 10.40 out of 12
Air Quality Not available.
Flu Activity Not available.
METAR KBUF 042054Z 05013KT 10SM FEW035 FEW100 FEW280 29/19 A3007 RMK AO2 SLP177 CB TOP DSNT SW T02890189 55005

10-Day Weather Forecast

×

Almanac

Astronomy

Sep. 04, 2015 Rise Set
Actual Time
Civil Twilight
Nautical Twilight
Astronomical Twilight
Moon
Length of Visible Light
Length of Day
Tomorrow will be .
, % of the Moon is Illuminated

Today's Extremes

State Highs State Lows

Community

WunderPhotos

Upload Photos

1,852,297 photos uploaded!

WunderBlogs® & News

Nearby

Air Quality

  Air Quality AQ Index Pollutant
Not available.

Snow Depth

Station Depth Elevation

Earthquake Activity

City Distance Mag. Time & Date
Minimum magnitude displayed is 2.5.

Coastal Water Temperatures

Place Temperature

Stations

Nearby Weather Stations

Station Location Temp. Windchill Dew Point Humidity Wind Precip. Elev Updated Type